Big Bear Station Historical Data
Daily Summary for June 24, 2017 Units:  English    Metric   Both
« Previous Day
Next Day »
Daily Weekly Monthly Yearly Custom
  High: Low: Average:
Temperature: 90.0 °F 59.4 °F 74.6 °F
Dew Point: 55.1 °F 33.8 °F 42.2 °F
Humidity: 53 % 18 % 33 %
Wind Speed: 6.3 mph 0.0 mph 2.2 mph
Wind Gust: -999.0 mph - -
Wind:- - WSW
Pressure: 30.29 in 30.25 in -
Precipitation: 0.00 in    
Historical Graphs
 
 
Tabular Data for June 24, 2017
Time Temperature Dew Point Pressure Wind Wind Speed Wind Gust Humidity Rainfall Rate (Hourly)
00:00 66.7 °F 34.3 °F 30.28 in SSE 2.7 mph -999.0 mph 30 % 0 in
00:15 66.7 °F 35.9 °F 30.28 in SE 1.7 mph -999.0 mph 32 % 0 in
00:30 67.1 °F 36.3 °F 30.28 in South 2.7 mph -999.0 mph 32 % 0 in
00:46 67.1 °F 35.4 °F 30.28 in South 2.2 mph -999.0 mph 31 % 0 in
01:01 67.3 °F 34.8 °F 30.28 in South 3.2 mph -999.0 mph 30 % 0 in
01:16 66.9 °F 34.5 °F 30.27 in SSE 1.7 mph -999.0 mph 30 % 0 in
01:31 66.9 °F 34.5 °F 30.27 in SSE 1.1 mph -999.0 mph 30 % 0 in
01:46 66.9 °F 34.5 °F 30.27 in SE 2.2 mph -999.0 mph 30 % 0 in
02:02 67.1 °F 33.8 °F 30.27 in SSE 2.2 mph -999.0 mph 29 % 0 in
02:17 67.1 °F 34.6 °F 30.27 in SSE 2.2 mph -999.0 mph 30 % 0 in
02:32 66.6 °F 36.6 °F 30.26 in SSE 2.2 mph -999.0 mph 33 % 0 in
02:47 66.2 °F 37.7 °F 30.26 in SSE 2.7 mph -999.0 mph 35 % 0 in
03:02 65.7 °F 37.3 °F 30.26 in SSE 2.7 mph -999.0 mph 35 % 0 in
03:18 64.9 °F 35.9 °F 30.26 in Calm   -999.0 mph 34 % 0 in
03:33 63.9 °F 35.7 °F 30.25 in Calm   -999.0 mph 35 % 0 in
03:48 63.1 °F 35.0 °F 30.25 in Calm   -999.0 mph 35 % 0 in
04:03 62.2 °F 34.9 °F 30.26 in Calm   -999.0 mph 36 % 0 in
04:19 61.7 °F 35.8 °F 30.25 in SE 1.7 mph -999.0 mph 38 % 0 in
04:34 61.3 °F 36.8 °F 30.26 in East 1.7 mph -999.0 mph 40 % 0 in
04:49 61.0 °F 37.7 °F 30.26 in Calm   -999.0 mph 42 % 0 in
05:04 60.4 °F 37.2 °F 30.26 in Calm   -999.0 mph 42 % 0 in
05:19 60.3 °F 37.1 °F 30.27 in Calm   -999.0 mph 42 % 0 in
05:35 59.7 °F 37.2 °F 30.27 in Calm   -999.0 mph 43 % 0 in
05:50 59.4 °F 37.5 °F 30.27 in ESE 2.2 mph -999.0 mph 44 % 0 in
06:05 59.4 °F 38.6 °F 30.27 in ESE 1.7 mph -999.0 mph 46 % 0 in
06:20 59.4 °F 39.2 °F 30.28 in Calm   -999.0 mph 47 % 0 in
06:35 59.7 °F 41.0 °F 30.29 in Calm   -999.0 mph 50 % 0 in
06:51 60.6 °F 41.3 °F 30.29 in Calm   -999.0 mph 49 % 0 in
07:06 62.6 °F 44.7 °F 30.29 in Calm   -999.0 mph 52 % 0 in
07:21 64.0 °F 46.5 °F 30.28 in NW 3.2 mph -999.0 mph 53 % 0 in
07:36 65.3 °F 46.7 °F 30.29 in Calm   -999.0 mph 51 % 0 in
07:51 66.9 °F 47.7 °F 30.28 in SSE 2.2 mph -999.0 mph 50 % 0 in
08:07 70.0 °F 45.9 °F 30.28 in South 1.7 mph -999.0 mph 42 % 0 in
08:22 70.3 °F 51.3 °F 30.29 in Calm   -999.0 mph 51 % 0 in
08:37 70.7 °F 50.6 °F 30.29 in Calm   -999.0 mph 49 % 0 in
08:52 72.7 °F 47.0 °F 30.29 in Calm   -999.0 mph 40 % 0 in
09:08 74.5 °F 38.3 °F 30.29 in NNW 1.1 mph -999.0 mph 27 % 0 in
09:23 76.5 °F 41.0 °F 30.29 in NW 2.7 mph -999.0 mph 28 % 0 in
09:39 77.7 °F 38.0 °F 30.29 in NW 1.7 mph -999.0 mph 24 % 0 in
09:54 79.0 °F 43.1 °F 30.29 in NW 4.2 mph -999.0 mph 28 % 0 in
10:09 79.2 °F 44.2 °F 30.28 in North 4.2 mph -999.0 mph 29 % 0 in
10:24 79.9 °F 43.9 °F 30.29 in NW 5.8 mph -999.0 mph 28 % 0 in
10:39 80.4 °F 45.2 °F 30.29 in NW 4.7 mph -999.0 mph 29 % 0 in
10:55 81.5 °F 42.3 °F 30.28 in NNW 4.7 mph -999.0 mph 25 % 0 in
11:10 82.6 °F 43.2 °F 30.29 in NW 3.7 mph -999.0 mph 25 % 0 in
11:25 83.7 °F 42.0 °F 30.28 in NNW 5.8 mph -999.0 mph 23 % 0 in
11:40 85.5 °F 41.1 °F 30.28 in NW 3.7 mph -999.0 mph 21 % 0 in
11:55 87.6 °F 41.6 °F 30.28 in NW 5.3 mph -999.0 mph 20 % 0 in
12:11 86.9 °F 42.3 °F 30.28 in NNW 4.7 mph -999.0 mph 21 % 0 in
12:26 84.6 °F 39.1 °F 30.28 in North 3.7 mph -999.0 mph 20 % 0 in
12:41 84.7 °F 42.8 °F 30.28 in NNE 1.7 mph -999.0 mph 23 % 0 in
12:56 84.6 °F 39.1 °F 30.27 in NW 4.7 mph -999.0 mph 20 % 0 in
13:11 82.9 °F 40.2 °F 30.27 in North 1.1 mph -999.0 mph 22 % 0 in
13:27 82.6 °F 38.7 °F 30.27 in NE 1.1 mph -999.0 mph 21 % 0 in
13:42 83.5 °F 36.9 °F 30.27 in NNW 1.1 mph -999.0 mph 19 % 0 in
13:58 84.9 °F 43.0 °F 30.28 in North 4.2 mph -999.0 mph 23 % 0 in
14:13 83.8 °F 43.2 °F 30.28 in ESE 1.1 mph -999.0 mph 24 % 0 in
14:28 88.0 °F 41.9 °F 30.28 in NNW 3.7 mph -999.0 mph 20 % 0 in
14:44 88.0 °F 44.4 °F 30.27 in North 5.3 mph -999.0 mph 22 % 0 in
14:59 88.7 °F 42.5 °F 30.27 in NNW 3.7 mph -999.0 mph 20 % 0 in
15:14 90.0 °F 40.8 °F 30.27 in NW 3.7 mph -999.0 mph 18 % 0 in
15:31 89.8 °F 55.1 °F 30.26 in WNW 4.7 mph -999.0 mph 31 % 0 in
15:46 89.2 °F 54.6 °F 30.26 in NW 4.2 mph -999.0 mph 31 % 0 in
16:01 88.2 °F 53.8 °F 30.26 in NNW 5.3 mph -999.0 mph 31 % 0 in
16:16 88.5 °F 53.1 °F 30.25 in NW 4.7 mph -999.0 mph 30 % 0 in
16:31 89.4 °F 45.6 °F 30.26 in NNW 4.7 mph -999.0 mph 22 % 0 in
16:47 89.8 °F 44.7 °F 30.26 in NNE 4.7 mph -999.0 mph 21 % 0 in
17:02 86.4 °F 43.1 °F 30.26 in NE 4.7 mph -999.0 mph 22 % 0 in
17:18 84.7 °F 41.7 °F 30.26 in NW 3.2 mph -999.0 mph 22 % 0 in
17:33 86.7 °F 44.5 °F 30.26 in NW 4.2 mph -999.0 mph 23 % 0 in
17:48 88.7 °F 55.1 °F 30.26 in NNW 3.7 mph -999.0 mph 32 % 0 in
18:04 86.7 °F 50.7 °F 30.26 in WNW 6.3 mph -999.0 mph 29 % 0 in
18:19 87.4 °F 49.3 °F 30.26 in NW 2.7 mph -999.0 mph 27 % 0 in
18:34 87.6 °F 47.4 °F 30.26 in NNW 3.2 mph -999.0 mph 25 % 0 in
18:49 86.4 °F 48.5 °F 30.26 in WNW 2.7 mph -999.0 mph 27 % 0 in
19:04 85.1 °F 52.8 °F 30.26 in NW 2.7 mph -999.0 mph 33 % 0 in
19:35 78.8 °F 49.6 °F 30.26 in Calm   -999.0 mph 36 % 0 in
19:50 77.0 °F 48.7 °F 30.26 in Calm   -999.0 mph 37 % 0 in
20:05 75.6 °F 46.0 °F 30.27 in Calm   -999.0 mph 35 % 0 in
20:20 74.5 °F 47.2 °F 30.27 in NW 4.2 mph -999.0 mph 38 % 0 in
20:36 74.5 °F 47.9 °F 30.27 in North 1.7 mph -999.0 mph 39 % 0 in
20:51 73.0 °F 45.9 °F 30.27 in Calm   -999.0 mph 38 % 0 in
21:06 71.4 °F 44.5 °F 30.27 in Calm   -999.0 mph 38 % 0 in
21:21 70.3 °F 43.5 °F 30.27 in Calm   -999.0 mph 38 % 0 in
21:36 69.4 °F 42.7 °F 30.28 in Calm   -999.0 mph 38 % 0 in
21:52 68.7 °F 42.7 °F 30.28 in Calm   -999.0 mph 39 % 0 in
22:07 69.1 °F 42.4 °F 30.28 in SSW 2.2 mph -999.0 mph 38 % 0 in
22:22 68.5 °F 41.9 °F 30.28 in Calm   -999.0 mph 38 % 0 in
22:38 71.8 °F 44.1 °F 30.28 in NNW 2.7 mph -999.0 mph 37 % 0 in
22:53 70.0 °F 41.1 °F 30.28 in Calm   -999.0 mph 35 % 0 in
23:08 68.7 °F 40.7 °F 30.29 in Calm   -999.0 mph 36 % 0 in
23:24 68.4 °F 40.4 °F 30.29 in South 1.7 mph -999.0 mph 36 % 0 in
23:39 67.6 °F 39.7 °F 30.28 in SSE 2.2 mph -999.0 mph 36 % 0 in
23:54 67.1 °F 39.3 °F 30.28 in Calm   -999.0 mph 36 % 0 in
Big Bear CA Weather
Compliments of Weather Underground - 1.5 mb